createdAt,value
2022-10-22T00:01:10.349Z,97835.63
2022-10-22T00:03:38.152Z,97835.88
2022-10-22T00:06:06.463Z,97837.81
2022-10-22T00:08:34.835Z,97841.34
2022-10-22T00:11:10.649Z,97847.88
2022-10-22T00:13:40.134Z,97840.84
2022-10-22T00:16:08.955Z,97836.25
2022-10-22T00:18:37.252Z,97830.59
2022-10-22T00:21:06.127Z,97829.53
2022-10-22T00:23:34.132Z,97818.72
2022-10-22T00:26:02.387Z,97815.47
2022-10-22T00:28:30.506Z,97833.06
2022-10-22T00:31:01.029Z,97820.94
2022-10-22T00:33:30.345Z,97833.94
2022-10-22T00:35:58.299Z,97828.28
2022-10-22T00:38:26.308Z,97839.38
2022-10-22T00:40:54.202Z,97845.88
2022-10-22T00:43:22.206Z,97848.84
2022-10-22T00:45:50.372Z,97850.47
2022-10-22T00:48:27.829Z,97841.53
2022-10-22T00:50:59.255Z,97844.50
2022-10-22T00:53:30.832Z,97835.59
2022-10-22T00:55:59.199Z,97827.22
2022-10-22T00:58:29.934Z,97811.53
2022-10-22T01:00:58.544Z,97805.31
2022-10-22T01:03:27.839Z,97804.75
2022-10-22T01:05:58.392Z,97798.00
2022-10-22T01:08:33.841Z,97815.31
2022-10-22T01:11:12.737Z,97810.19
2022-10-22T01:13:50.207Z,97806.63
2022-10-22T01:16:23.275Z,97805.84
2022-10-22T01:19:01.425Z,97810.19
2022-10-22T01:21:35.869Z,97812.06
2022-10-22T01:24:45.345Z,97804.19
2022-10-22T01:27:30.457Z,97791.22
2022-10-22T01:30:04.514Z,97776.03
2022-10-22T01:32:38.157Z,97789.88
2022-10-22T01:35:10.312Z,97791.22
2022-10-22T01:37:43.259Z,97793.63
2022-10-22T01:40:13.069Z,97804.75
2022-10-22T01:42:40.908Z,97793.09
2022-10-22T01:45:15.146Z,97793.94
2022-10-22T01:47:55.491Z,97799.88
2022-10-22T01:50:43.074Z,97813.97
2022-10-22T01:53:26.709Z,97808.03
2022-10-22T01:56:04.440Z,97807.72
2022-10-22T01:58:41.928Z,97823.19
2022-10-22T02:01:19.725Z,97810.72
2022-10-22T02:03:57.489Z,97814.22
2022-10-22T02:06:28.370Z,97801.81
2022-10-22T02:08:57.934Z,97804.22
2022-10-22T02:11:25.760Z,97797.13
2022-10-22T02:13:57.637Z,97794.97
2022-10-22T02:16:33.214Z,97822.84
2022-10-22T02:19:04.291Z,97819.63
2022-10-22T02:21:33.055Z,97828.53
2022-10-22T02:24:01.162Z,97826.91
2022-10-22T02:26:34.319Z,97826.38
2022-10-22T02:29:08.214Z,97826.66
2022-10-22T02:31:41.518Z,97841.53
2022-10-22T02:34:14.590Z,97852.94
2022-10-22T02:36:48.075Z,97853.19
2022-10-22T02:39:20.178Z,97847.53
2022-10-22T02:41:48.269Z,97847.00
2022-10-22T02:44:16.117Z,97847.28
2022-10-22T02:46:45.569Z,97848.38
2022-10-22T02:49:13.373Z,97852.97
2022-10-22T02:51:41.554Z,97851.34
2022-10-22T02:54:09.676Z,97842.41
2022-10-22T02:56:37.974Z,97853.50
2022-10-22T02:59:05.832Z,97856.50
2022-10-22T03:01:34.168Z,97865.16
2022-10-22T03:04:03.901Z,97850.56
2022-10-22T03:06:31.788Z,97855.97
2022-10-22T03:08:59.710Z,97850.03
2022-10-22T03:11:27.751Z,97847.31
2022-10-22T03:13:55.906Z,97847.06
2022-10-22T03:16:23.748Z,97850.03
2022-10-22T03:18:51.718Z,97845.72
2022-10-22T03:21:29.438Z,97849.75
2022-10-22T03:23:58.189Z,97853.00
2022-10-22T03:26:27.057Z,97848.13
2022-10-22T03:28:55.550Z,97837.03
2022-10-22T03:31:23.361Z,97834.59
2022-10-22T03:33:51.170Z,97830.56
2022-10-22T03:36:19.420Z,97817.31
2022-10-22T03:38:49.105Z,97821.09
2022-10-22T03:41:16.961Z,97826.78
2022-10-22T03:43:49.607Z,97823.81
2022-10-22T03:46:17.654Z,97809.75
2022-10-22T03:48:45.497Z,97820.84
2022-10-22T03:51:13.288Z,97812.47
2022-10-22T03:53:41.131Z,97819.75
2022-10-22T03:56:11.459Z,97810.03
2022-10-22T03:58:40.754Z,97802.75
2022-10-22T04:01:09.979Z,97812.47
2022-10-22T04:03:38.292Z,97807.88
2022-10-22T04:06:08.456Z,97816.25
2022-10-22T04:08:36.524Z,97810.56
2022-10-22T04:11:04.629Z,97812.19
2022-10-22T04:13:33.869Z,97828.41
2022-10-22T04:16:09.045Z,97825.97
2022-10-22T04:18:37.328Z,97835.44
2022-10-22T04:21:05.931Z,97827.34
2022-10-22T04:23:33.959Z,97833.81
2022-10-22T04:26:03.629Z,97834.09
2022-10-22T04:28:31.557Z,97850.88
2022-10-22T04:31:00.969Z,97846.56
2022-10-22T04:33:29.125Z,97862.22
2022-10-22T04:35:56.918Z,97826.53
2022-10-22T04:38:24.838Z,97827.88
2022-10-22T04:40:52.680Z,97850.34
2022-10-22T04:43:20.547Z,97860.59
2022-10-22T04:45:48.477Z,97852.75
2022-10-22T04:48:17.759Z,97863.03
2022-10-22T04:50:45.556Z,97853.84
2022-10-22T04:53:13.617Z,97849.53
2022-10-22T04:55:41.456Z,97854.94
2022-10-22T04:58:09.478Z,97852.50
2022-10-22T05:00:37.539Z,97856.28
2022-10-22T05:03:05.590Z,97852.78
2022-10-22T05:05:35.370Z,97850.06
2022-10-22T05:08:03.356Z,97848.50
2022-10-22T05:10:31.266Z,97857.94
2022-10-22T05:12:59.113Z,97857.41
2022-10-22T05:15:27.063Z,97868.22
2022-10-22T05:17:54.837Z,97872.00
2022-10-22T05:20:22.667Z,97875.53
2022-10-22T05:22:51.962Z,97883.38
2022-10-22T05:25:19.813Z,97891.47
2022-10-22T05:27:50.503Z,97899.59
2022-10-22T05:30:18.333Z,97899.59
2022-10-22T05:32:46.140Z,97900.94
2022-10-22T05:35:14.000Z,97914.72
2022-10-22T05:37:42.311Z,97917.44
2022-10-22T05:40:26.601Z,97922.03
2022-10-22T05:43:00.374Z,97914.47
2022-10-22T05:45:28.504Z,97927.97
2022-10-22T05:47:56.760Z,97927.44
2022-10-22T05:50:24.632Z,97930.13
2022-10-22T05:52:52.581Z,97943.09
2022-10-22T05:55:22.209Z,97936.88
2022-10-22T05:57:50.317Z,97952.84
2022-10-22T06:00:18.821Z,97949.84
2022-10-22T06:02:51.024Z,97957.41
2022-10-22T06:05:18.980Z,97961.72
2022-10-22T06:07:47.269Z,97964.94
2022-10-22T06:10:18.181Z,97976.03
2022-10-22T06:12:48.635Z,97974.69
2022-10-22T06:15:18.941Z,97979.28
2022-10-22T06:17:47.424Z,97984.13
2022-10-22T06:20:16.396Z,97988.19
2022-10-22T06:22:44.267Z,97987.63
2022-10-22T06:25:12.633Z,97995.47
2022-10-22T06:27:40.689Z,98006.56
2022-10-22T06:30:11.193Z,98010.06
2022-10-22T06:32:39.244Z,98010.69
2022-10-22T06:35:08.299Z,98014.41
2022-10-22T06:37:36.248Z,98008.19
2022-10-22T06:40:04.305Z,98009.59
2022-10-22T06:42:32.084Z,98015.25
2022-10-22T06:47:37.268Z,98037.44
2022-10-22T06:50:06.075Z,98035.56
2022-10-22T06:52:33.915Z,98037.72
2022-10-22T06:55:02.289Z,98036.09
2022-10-22T06:57:31.225Z,98040.97
2022-10-22T06:59:59.060Z,98036.38
2022-10-22T07:02:26.852Z,98035.28
2022-10-22T07:04:56.309Z,98039.63
2022-10-22T07:07:24.391Z,98053.16
2022-10-22T07:09:52.247Z,98055.88
2022-10-22T07:12:20.138Z,98053.19
2022-10-22T07:14:48.196Z,98060.47
2022-10-22T07:17:16.272Z,98055.06
2022-10-22T07:19:45.289Z,98058.59
2022-10-22T07:22:16.805Z,98066.72
2022-10-22T07:24:44.739Z,98072.41
2022-10-22T07:27:12.641Z,98079.72
2022-10-22T07:29:40.453Z,98083.50
2022-10-22T07:32:08.623Z,98087.56
2022-10-22T07:34:38.427Z,98085.41
2022-10-22T07:37:08.390Z,98088.66
2022-10-22T07:39:37.848Z,98083.75
2022-10-22T07:42:05.716Z,98088.34
2022-10-22T07:44:33.519Z,98084.56
2022-10-22T07:47:01.315Z,98094.56
2022-10-22T07:49:29.262Z,98097.00
2022-10-22T07:51:57.826Z,98089.97
2022-10-22T07:54:25.738Z,98091.59
2022-10-22T07:56:55.106Z,98101.59
2022-10-22T07:59:22.998Z,98097.00
2022-10-22T08:01:50.998Z,98097.00
2022-10-22T08:04:18.775Z,98103.22
2022-10-22T08:06:47.374Z,98111.09
2022-10-22T08:09:15.974Z,98104.31
2022-10-22T08:11:43.816Z,98095.91
2022-10-22T08:14:13.101Z,98097.81
2022-10-22T08:16:41.347Z,98107.03
2022-10-22T08:19:09.161Z,98107.56
2022-10-22T08:21:37.390Z,98110.00
2022-10-22T08:26:33.896Z,98111.63
2022-10-22T08:29:03.470Z,98110.53
2022-10-22T08:31:32.690Z,98119.16
2022-10-22T08:34:00.558Z,98124.78
2022-10-22T08:36:28.683Z,98117.97
2022-10-22T08:38:56.670Z,98120.59
2022-10-22T08:41:25.873Z,98129.72
2022-10-22T08:44:25.945Z,98120.41
2022-10-22T08:47:20.042Z,98117.59
2022-10-22T08:49:50.516Z,98110.72
2022-10-22T08:52:20.967Z,98106.28
2022-10-22T08:54:53.866Z,98107.75
2022-10-22T08:57:39.868Z,98112.50
2022-10-22T09:00:29.933Z,98106.66
2022-10-22T09:03:20.263Z,98115.03
2022-10-22T09:05:57.245Z,98112.19
2022-10-22T09:08:25.217Z,98115.63
2022-10-22T09:11:03.493Z,98115.56
2022-10-22T09:13:31.550Z,98117.19
2022-10-22T09:16:12.684Z,98109.72
2022-10-22T09:18:48.417Z,98121.03
2022-10-22T09:21:27.635Z,98125.03
2022-10-22T09:24:10.874Z,98114.31
2022-10-22T09:26:41.423Z,98122.94
2022-10-22T09:29:19.215Z,98123.84
2022-10-22T09:31:47.621Z,98129.38
2022-10-22T09:34:22.242Z,98130.38
2022-10-22T09:36:59.764Z,98124.47
2022-10-22T09:39:29.585Z,98129.75
2022-10-22T09:41:57.412Z,98128.28
2022-10-22T09:44:25.312Z,98124.88
2022-10-22T09:46:53.469Z,98126.72
2022-10-22T09:49:27.909Z,98131.00
2022-10-22T09:51:57.830Z,98131.94
2022-10-22T09:54:27.809Z,98139.66
2022-10-22T09:56:58.808Z,98144.72
2022-10-22T09:59:30.792Z,98141.41
2022-10-22T10:02:13.535Z,98148.88
2022-10-22T10:04:51.925Z,98146.59
2022-10-22T10:07:23.952Z,98159.53
2022-10-22T10:09:53.622Z,98161.06
2022-10-22T10:12:34.678Z,98153.81
2022-10-22T10:15:14.337Z,98158.66
2022-10-22T10:17:51.986Z,98169.56
2022-10-22T10:20:35.600Z,98169.69
2022-10-22T10:23:09.480Z,98170.00
2022-10-22T10:25:44.807Z,98172.03
2022-10-22T10:28:22.389Z,98178.41
2022-10-22T10:30:58.840Z,98175.47
2022-10-22T10:33:36.832Z,98180.63
2022-10-22T10:36:13.468Z,98186.59
2022-10-22T10:38:53.660Z,98182.56
2022-10-22T10:41:34.003Z,98174.53
2022-10-22T10:44:21.503Z,98175.25
2022-10-22T10:46:56.188Z,98183.75
2022-10-22T10:49:26.741Z,98182.53
2022-10-22T10:52:02.855Z,98188.41
2022-10-22T10:54:45.781Z,98189.75
2022-10-22T10:57:23.893Z,98191.56
2022-10-22T11:00:03.076Z,98192.47
2022-10-22T11:03:17.025Z,98189.94
2022-10-22T11:05:49.675Z,98193.25
2022-10-22T11:08:22.408Z,98195.69
2022-10-22T11:10:53.193Z,98197.50
2022-10-22T11:13:28.478Z,98194.09
2022-10-22T11:16:02.080Z,98193.78
2022-10-22T11:18:35.720Z,98189.22
2022-10-22T11:21:19.228Z,98183.75
2022-10-22T11:23:53.527Z,98179.31
2022-10-22T11:26:37.752Z,98185.88
2022-10-22T11:29:08.357Z,98177.31
2022-10-22T11:31:36.803Z,98183.78
2022-10-22T11:34:31.998Z,98185.78
2022-10-22T11:37:00.952Z,98186.78
2022-10-22T11:39:38.872Z,98182.56
2022-10-22T11:42:10.678Z,98176.16
2022-10-22T11:44:49.427Z,98176.47
2022-10-22T11:47:21.110Z,98177.19
2022-10-22T11:49:59.004Z,98178.00
2022-10-22T11:52:39.488Z,98177.06
2022-10-22T11:55:45.958Z,98168.47
2022-10-22T11:58:33.105Z,98169.97
2022-10-22T12:01:22.658Z,98168.84
2022-10-22T12:03:52.605Z,98163.06
2022-10-22T12:06:23.322Z,98168.16
2022-10-22T12:09:03.728Z,98172.50
2022-10-22T12:11:41.492Z,98170.66
2022-10-22T12:14:20.589Z,98167.38
2022-10-22T12:16:57.247Z,98163.47
2022-10-22T12:19:29.266Z,98166.16
2022-10-22T12:22:01.157Z,98161.19
2022-10-22T12:24:33.748Z,98161.06
2022-10-22T12:27:03.090Z,98156.41
2022-10-22T12:29:33.894Z,98166.34
2022-10-22T12:32:04.896Z,98163.00
2022-10-22T12:34:32.686Z,98166.66
2022-10-22T12:37:00.589Z,98164.75
2022-10-22T12:39:30.040Z,98161.19
2022-10-22T12:41:58.159Z,98149.13
2022-10-22T12:44:27.332Z,98147.88
2022-10-22T12:46:57.052Z,98147.50
2022-10-22T12:49:30.490Z,98143.53
2022-10-22T12:52:03.014Z,98141.34
2022-10-22T12:54:33.369Z,98138.75
2022-10-22T12:57:02.045Z,98147.44
2022-10-22T12:59:36.644Z,98142.50
2022-10-22T13:02:16.241Z,98142.66
2022-10-22T13:04:44.152Z,98138.78
2022-10-22T13:07:22.115Z,98140.09
2022-10-22T13:09:59.826Z,98137.72
2022-10-22T13:12:29.434Z,98134.38
2022-10-22T13:14:58.632Z,98130.91
2022-10-22T13:17:41.775Z,98134.75
2022-10-22T13:20:21.779Z,98132.75
2022-10-22T13:23:00.313Z,98135.00
2022-10-22T13:25:31.772Z,98131.31
2022-10-22T13:28:02.027Z,98131.22
2022-10-22T13:30:33.973Z,98130.91
2022-10-22T13:33:04.327Z,98134.22
2022-10-22T13:35:34.861Z,98130.75
2022-10-22T13:38:03.244Z,98131.56
2022-10-22T13:40:31.394Z,98136.63
2022-10-22T13:42:59.520Z,98128.13
2022-10-22T13:45:28.293Z,98134.22
2022-10-22T13:47:57.627Z,98127.66
2022-10-22T13:50:25.436Z,98122.69
2022-10-22T13:52:55.751Z,98127.47
2022-10-22T13:55:26.716Z,98133.41
2022-10-22T13:57:56.319Z,98128.59
2022-10-22T14:00:24.881Z,98131.03
2022-10-22T14:02:56.164Z,98130.66
2022-10-22T14:05:25.372Z,98131.47
2022-10-22T14:07:53.695Z,98123.38
2022-10-22T14:10:23.805Z,98125.03
2022-10-22T14:12:53.642Z,98127.47
2022-10-22T14:15:23.863Z,98130.53
2022-10-22T14:17:56.903Z,98116.66
2022-10-22T14:20:29.296Z,98130.03
2022-10-22T14:23:01.570Z,98127.66
2022-10-22T14:25:31.473Z,98127.16
2022-10-22T14:27:59.325Z,98126.50
2022-10-22T14:30:30.388Z,98128.44
2022-10-22T14:32:59.288Z,98124.38
2022-10-22T14:35:28.620Z,98131.00
2022-10-22T14:38:03.817Z,98120.88
2022-10-22T14:40:32.197Z,98126.97
2022-10-22T14:43:00.304Z,98127.28
2022-10-22T14:45:28.698Z,98123.75
2022-10-22T14:48:01.968Z,98126.78
2022-10-22T14:50:31.123Z,98135.00
2022-10-22T14:52:59.865Z,98129.34
2022-10-22T14:55:29.007Z,98123.25
2022-10-22T14:57:57.994Z,98122.88
2022-10-22T15:01:13.284Z,98127.69
2022-10-22T15:03:41.269Z,98127.81
2022-10-22T15:06:10.596Z,98131.66
2022-10-22T15:08:39.694Z,98132.91
2022-10-22T15:11:11.281Z,98132.22
2022-10-22T15:13:39.444Z,98139.72
2022-10-22T15:16:13.160Z,98145.31
2022-10-22T15:18:40.969Z,98147.34
2022-10-22T15:21:19.523Z,98146.66
2022-10-22T15:23:48.172Z,98151.44
2022-10-22T15:26:25.429Z,98147.22
2022-10-22T15:28:53.240Z,98141.91
2022-10-22T15:31:45.338Z,98134.31
2022-10-22T15:34:13.513Z,98142.94
2022-10-22T15:36:45.413Z,98140.81
2022-10-22T15:39:13.208Z,98141.84
2022-10-22T15:41:41.049Z,98137.13
2022-10-22T15:44:09.144Z,98137.34
2022-10-22T15:46:36.986Z,98140.28
2022-10-22T15:49:04.820Z,98138.66
2022-10-22T15:51:32.855Z,98141.41
2022-10-22T15:54:04.339Z,98145.75
2022-10-22T15:56:34.750Z,98136.34
2022-10-22T15:59:06.370Z,98145.81
2022-10-22T16:01:35.669Z,98145.47
2022-10-22T16:04:03.770Z,98146.75
2022-10-22T16:06:33.821Z,98142.28
2022-10-22T16:09:05.782Z,98149.22
2022-10-22T16:11:34.813Z,98149.38
2022-10-22T16:14:02.887Z,98146.81
2022-10-22T16:16:32.409Z,98148.09
2022-10-22T16:19:00.360Z,98146.84
2022-10-22T16:21:28.883Z,98154.63
2022-10-22T16:23:56.746Z,98150.75
2022-10-22T16:26:25.946Z,98160.38
2022-10-22T16:28:53.776Z,98153.38
2022-10-22T16:31:21.559Z,98154.31
2022-10-22T16:33:50.401Z,98150.31
2022-10-22T16:36:20.273Z,98160.44
2022-10-22T16:38:49.569Z,98162.72
2022-10-22T16:41:19.505Z,98156.53
2022-10-22T16:43:50.791Z,98158.25
2022-10-22T16:46:20.401Z,98160.81
2022-10-22T16:48:49.207Z,98161.47
2022-10-22T16:51:19.797Z,98166.72
2022-10-22T16:53:48.000Z,98167.34
2022-10-22T16:56:17.227Z,98170.09
2022-10-22T16:58:48.157Z,98169.88
2022-10-22T17:01:18.420Z,98184.03
2022-10-22T17:03:47.332Z,98179.97
2022-10-22T17:06:17.718Z,98185.69
2022-10-22T17:08:45.677Z,98185.97
2022-10-22T17:11:17.153Z,98189.28
2022-10-22T17:13:46.867Z,98190.19
2022-10-22T17:16:18.292Z,98184.50
2022-10-22T17:18:53.475Z,98183.47
2022-10-22T17:21:22.459Z,98180.53
2022-10-22T17:23:51.835Z,98183.59
2022-10-22T17:26:22.768Z,98180.34
2022-10-22T17:28:51.258Z,98190.97
2022-10-22T17:31:25.298Z,98186.94
2022-10-22T17:33:54.963Z,98185.34
2022-10-22T17:36:25.693Z,98189.19
2022-10-22T17:38:55.321Z,98190.56
2022-10-22T17:41:26.414Z,98193.00
2022-10-22T17:43:54.357Z,98203.09
2022-10-22T17:46:25.014Z,98206.63
2022-10-22T17:48:53.846Z,98215.84
2022-10-22T17:51:22.744Z,98204.22
2022-10-22T17:53:52.818Z,98213.72
2022-10-22T17:56:23.067Z,98204.50
2022-10-22T17:58:52.997Z,98211.06
2022-10-22T18:01:29.869Z,98216.22
2022-10-22T18:04:01.212Z,98217.06
2022-10-22T18:06:29.821Z,98213.84
2022-10-22T18:08:57.742Z,98217.63
2022-10-22T18:11:30.028Z,98215.75
2022-10-22T18:14:02.645Z,98217.66
2022-10-22T18:16:32.475Z,98215.22
2022-10-22T18:19:12.651Z,98218.22
2022-10-22T18:21:43.032Z,98227.97
2022-10-22T18:24:11.461Z,98216.59
2022-10-22T18:26:39.333Z,98218.78
2022-10-22T18:29:11.054Z,98210.09
2022-10-22T18:31:40.601Z,98214.44
2022-10-22T18:34:08.480Z,98212.81
2022-10-22T18:36:36.330Z,98213.91
2022-10-22T18:39:06.041Z,98217.16
2022-10-22T18:41:35.955Z,98206.56
2022-10-22T18:44:06.293Z,98216.59
2022-10-22T18:46:41.157Z,98201.97
2022-10-22T18:49:19.195Z,98201.69
2022-10-22T18:51:48.832Z,98202.25
2022-10-22T18:54:23.116Z,98196.56
2022-10-22T18:56:51.999Z,98208.78
2022-10-22T18:59:24.349Z,98202.53
2022-10-22T19:01:57.634Z,98198.47
2022-10-22T19:04:30.962Z,98203.09
2022-10-22T19:07:00.279Z,98192.78
2022-10-22T19:09:36.754Z,98190.91
2022-10-22T19:12:06.989Z,98194.41
2022-10-22T19:14:34.775Z,98195.22
2022-10-22T19:17:02.933Z,98191.44
2022-10-22T19:19:36.174Z,98199.28
2022-10-22T19:22:04.682Z,98191.72
2022-10-22T19:24:34.567Z,98197.69
2022-10-22T19:27:02.445Z,98194.16
2022-10-22T19:29:32.770Z,98200.13
2022-10-22T19:32:00.926Z,98199.06
2022-10-22T19:34:28.770Z,98195.81
2022-10-22T19:37:06.436Z,98196.91
2022-10-22T19:39:34.678Z,98196.91
2022-10-22T19:42:06.514Z,98203.41
2022-10-22T19:44:34.496Z,98198.78
2022-10-22T19:47:08.098Z,98197.16
2022-10-22T19:49:36.085Z,98192.56
2022-10-22T19:52:08.327Z,98196.91
2022-10-22T19:54:40.761Z,98186.88
2022-10-22T19:57:09.207Z,98193.09
2022-10-22T19:59:37.213Z,98194.72
2022-10-22T20:02:05.412Z,98186.31
2022-10-22T20:04:34.215Z,98189.03
2022-10-22T20:07:01.993Z,98184.41
2022-10-22T20:09:31.173Z,98190.38
2022-10-22T20:11:59.303Z,98192.28
2022-10-22T20:14:30.185Z,98196.06
2022-10-22T20:16:58.221Z,98196.06
2022-10-22T20:19:29.286Z,98196.63
2022-10-22T20:21:57.133Z,98191.47
2022-10-22T20:24:24.902Z,98193.66
2022-10-22T20:26:54.643Z,98201.22
2022-10-22T20:29:22.556Z,98198.53
2022-10-22T20:31:50.825Z,98197.16
2022-10-22T20:34:18.792Z,98197.97
2022-10-22T20:36:47.243Z,98198.25
2022-10-22T20:39:16.624Z,98203.66
2022-10-22T20:41:47.302Z,98210.44
2022-10-22T20:44:18.497Z,98216.41
2022-10-22T20:46:46.836Z,98211.56
2022-10-22T20:49:18.921Z,98208.34
2022-10-22T20:51:59.284Z,98210.75
2022-10-22T20:54:29.089Z,98209.97
2022-10-22T20:56:59.374Z,98211.84
2022-10-22T20:59:32.977Z,98214.56
2022-10-22T21:02:04.958Z,98220.25
2022-10-22T21:04:32.907Z,98215.09
2022-10-22T21:07:02.889Z,98217.00
2022-10-22T21:09:30.844Z,98206.44
2022-10-22T21:12:04.406Z,98205.09
2022-10-22T21:14:40.740Z,98206.44
2022-10-22T21:17:11.472Z,98193.16
2022-10-22T21:19:41.212Z,98193.97
2022-10-22T21:22:09.140Z,98194.53
2022-10-22T21:24:37.167Z,98193.97
2022-10-22T21:27:07.144Z,98191.53
2022-10-22T21:29:37.540Z,98193.44
2022-10-22T21:32:13.289Z,98190.19
2022-10-22T21:35:07.831Z,98192.34
2022-10-22T21:37:54.577Z,98188.31
2022-10-22T21:40:55.150Z,98195.63
2022-10-22T21:43:54.203Z,98187.22
2022-10-22T21:46:44.426Z,98190.75
2022-10-22T21:49:14.384Z,98189.38
2022-10-22T21:51:44.227Z,98185.31
2022-10-22T21:54:13.033Z,98187.75
2022-10-22T21:56:41.213Z,98178.53
2022-10-22T21:59:09.691Z,98186.41
2022-10-22T22:01:39.027Z,98183.66
2022-10-22T22:04:07.500Z,98182.56
2022-10-22T22:06:36.173Z,98183.66
2022-10-22T22:09:05.503Z,98197.19
2022-10-22T22:11:34.267Z,98204.78
2022-10-22T22:14:02.411Z,98198.00
2022-10-22T22:16:33.525Z,98200.16
2022-10-22T22:19:05.719Z,98189.88
2022-10-22T22:21:34.632Z,98189.34
2022-10-22T22:24:02.443Z,98186.91
2022-10-22T22:26:31.025Z,98186.63
2022-10-22T22:29:00.381Z,98180.66
2022-10-22T22:31:30.364Z,98185.53
2022-10-22T22:34:04.878Z,98180.94
2022-10-22T22:36:35.508Z,98177.97
2022-10-22T22:39:04.793Z,98183.13
2022-10-22T22:41:33.229Z,98191.78
2022-10-22T22:44:01.383Z,98196.66
2022-10-22T22:46:29.875Z,98206.66
2022-10-22T22:48:57.661Z,98198.53
2022-10-22T22:51:26.852Z,98206.41
2022-10-22T22:53:54.711Z,98199.88
2022-10-22T22:56:24.539Z,98198.53
2022-10-22T22:58:53.059Z,98197.16
2022-10-22T23:01:23.151Z,98193.91
2022-10-22T23:03:56.152Z,98183.34
2022-10-22T23:06:26.808Z,98182.00
2022-10-22T23:08:55.551Z,98181.44
2022-10-22T23:11:25.367Z,98171.16
2022-10-22T23:13:54.434Z,98181.19
2022-10-22T23:16:25.037Z,98177.91
2022-10-22T23:18:54.527Z,98180.63
2022-10-22T23:21:24.947Z,98170.88
2022-10-22T23:23:55.722Z,98169.25
2022-10-22T23:26:25.845Z,98169.78
2022-10-22T23:28:53.688Z,98165.47
2022-10-22T23:31:22.861Z,98159.78
2022-10-22T23:33:50.881Z,98150.03
2022-10-22T23:36:19.065Z,98154.34
2022-10-22T23:38:47.243Z,98150.56
2022-10-22T23:41:16.416Z,98150.28
2022-10-22T23:43:44.449Z,98150.81
2022-10-22T23:46:14.941Z,98148.94
2022-10-22T23:48:43.100Z,98146.50
2022-10-22T23:51:13.435Z,98157.03
2022-10-22T23:53:42.521Z,98151.88
2022-10-22T23:56:14.402Z,98152.16
2022-10-22T23:58:44.096Z,98150.53
